createdAt,value
2019-02-08T00:04:06.420Z,99035.09
2019-02-08T00:09:13.962Z,99036.50
2019-02-08T00:14:19.619Z,99039.91
2019-02-08T00:19:25.308Z,99039.91
2019-02-08T00:24:30.854Z,99043.64
2019-02-08T00:29:37.295Z,99050.94
2019-02-08T00:34:42.962Z,99051.16
2019-02-08T00:39:48.765Z,99053.08
2019-02-08T00:44:54.560Z,99056.71
2019-02-08T00:50:00.193Z,99063.45
2019-02-08T00:55:06.609Z,99057.06
2019-02-08T01:00:14.212Z,99053.92
2019-02-08T01:05:21.066Z,99053.27
2019-02-08T01:10:28.735Z,99053.69
2019-02-08T01:15:35.606Z,99057.57
2019-02-08T01:20:41.089Z,99055.20
2019-02-08T01:25:46.891Z,99060.39
2019-02-08T01:30:52.472Z,99062.20
2019-02-08T01:35:58.474Z,99054.81
2019-02-08T01:41:03.901Z,99049.87
2019-02-08T01:46:11.927Z,99042.22
2019-02-08T01:51:17.497Z,99052.83
2019-02-08T01:56:23.058Z,99061.28
2019-02-08T02:01:28.783Z,99054.80
2019-02-08T02:06:34.595Z,99056.25
2019-02-08T02:11:40.152Z,99076.56
2019-02-08T02:16:45.837Z,99075.91
2019-02-08T02:21:51.422Z,99081.45
2019-02-08T02:26:57.395Z,99084.97
2019-02-08T02:32:05.582Z,99079.13
2019-02-08T02:37:11.655Z,99086.55
2019-02-08T02:42:17.253Z,99097.20
2019-02-08T02:47:23.413Z,99110.35
2019-02-08T02:52:28.988Z,99120.03
2019-02-08T02:57:34.601Z,99126.98
2019-02-08T03:02:40.339Z,99133.45
2019-02-08T03:07:46.179Z,99125.27
2019-02-08T03:12:51.717Z,99140.00
2019-02-08T03:17:57.690Z,99137.07
2019-02-08T03:23:03.360Z,99143.73
2019-02-08T03:28:10.240Z,99143.12
2019-02-08T03:33:15.858Z,99143.25
2019-02-08T03:38:21.911Z,99154.47
2019-02-08T03:43:27.655Z,99146.19
2019-02-08T03:48:34.402Z,99135.72
2019-02-08T03:53:41.980Z,99143.55
2019-02-08T03:58:47.557Z,99151.52
2019-02-08T04:03:53.208Z,99154.95
2019-02-08T04:08:58.992Z,99135.86
2019-02-08T04:14:05.070Z,99147.08
2019-02-08T04:19:10.639Z,99138.59
2019-02-08T04:24:17.696Z,99147.13
2019-02-08T04:29:23.441Z,99156.78
2019-02-08T04:34:31.302Z,99145.03
2019-02-08T04:39:36.917Z,99148.89
2019-02-08T04:44:42.483Z,99147.08
2019-02-08T04:49:48.070Z,99159.45
2019-02-08T04:54:53.645Z,99146.47
2019-02-08T04:59:59.263Z,99159.92
2019-02-08T05:05:06.111Z,99159.70
2019-02-08T05:10:12.438Z,99148.96
2019-02-08T05:15:18.602Z,99157.55
2019-02-08T05:20:27.245Z,99171.56
2019-02-08T05:25:32.891Z,99174.08
2019-02-08T05:30:38.923Z,99177.13
2019-02-08T05:35:44.463Z,99183.16
2019-02-08T05:40:50.352Z,99187.16
2019-02-08T05:45:56.904Z,99188.22
2019-02-08T05:51:02.601Z,99204.02
2019-02-08T05:56:08.184Z,99211.67
2019-02-08T06:01:14.037Z,99209.84
2019-02-08T06:06:19.689Z,99203.16
2019-02-08T06:11:25.751Z,99206.98
2019-02-08T06:16:31.289Z,99202.13
2019-02-08T06:21:37.149Z,99199.51
2019-02-08T06:26:42.654Z,99199.10
2019-02-08T06:31:48.390Z,99218.42
2019-02-08T06:36:53.965Z,99213.06
2019-02-08T06:42:01.728Z,99214.52
2019-02-08T06:47:08.854Z,99219.47
2019-02-08T06:52:14.375Z,99222.77
2019-02-08T06:57:41.760Z,99217.18
2019-02-08T07:03:06.227Z,99214.77
2019-02-08T07:08:33.212Z,99228.03
2019-02-08T07:14:03.661Z,99227.05
2019-02-08T07:19:31.608Z,99239.02
2019-02-08T07:24:58.708Z,99235.64
2019-02-08T07:30:23.592Z,99237.15
2019-02-08T07:35:55.900Z,99241.27
2019-02-08T07:41:24.606Z,99246.97
2019-02-08T07:46:59.210Z,99229.95
2019-02-08T07:52:31.497Z,99227.66
2019-02-08T07:57:47.106Z,99207.73
2019-02-08T08:03:14.757Z,99207.73
2019-02-08T08:08:42.646Z,99214.64
2019-02-08T08:14:10.163Z,99215.91
2019-02-08T08:19:35.183Z,99218.84
2019-02-08T08:25:01.320Z,99216.48
2019-02-08T08:30:22.700Z,99216.48
2019-02-08T08:36:09.253Z,99216.09
2019-02-08T08:41:51.401Z,99232.90
2019-02-08T08:47:51.786Z,99242.22
2019-02-08T08:53:24.656Z,99230.37
2019-02-08T08:59:17.923Z,99236.36
2019-02-08T09:05:00.028Z,99235.20
2019-02-08T09:10:53.292Z,99232.16
2019-02-08T09:16:29.805Z,99228.41
2019-02-08T09:22:11.633Z,99225.51
2019-02-08T09:27:59.908Z,99219.25
2019-02-08T09:33:37.971Z,99217.36
2019-02-08T09:39:30.717Z,99208.58
2019-02-08T09:45:18.077Z,99209.32
2019-02-08T09:51:02.102Z,99204.03
2019-02-08T09:56:50.921Z,99214.34
2019-02-08T10:02:43.236Z,99218.49
2019-02-08T10:08:18.450Z,99220.33
2019-02-08T10:14:01.507Z,99219.84
2019-02-08T10:19:38.360Z,99222.20
2019-02-08T10:25:52.014Z,99214.22
2019-02-08T10:31:26.291Z,99213.09
2019-02-08T10:37:22.266Z,99204.94
2019-02-08T10:43:17.340Z,99193.72
2019-02-08T10:49:18.072Z,99187.62
2019-02-08T10:54:59.262Z,99179.58
2019-02-08T11:00:32.093Z,99176.63
2019-02-08T11:06:32.838Z,99147.00
2019-02-08T11:12:13.944Z,99158.36
2019-02-08T11:18:09.624Z,99152.55
2019-02-08T11:23:15.410Z,99139.44
2019-02-08T11:28:20.935Z,99139.44
2019-02-08T11:33:26.517Z,99135.20
2019-02-08T11:38:32.128Z,99125.61
2019-02-08T11:43:39.335Z,99121.64
2019-02-08T11:48:45.227Z,99117.37
2019-02-08T11:53:51.800Z,99117.73
2019-02-08T11:58:57.460Z,99116.46
2019-02-08T12:04:03.285Z,99122.59
2019-02-08T12:09:14.464Z,99118.70
2019-02-08T12:14:20.748Z,99113.35
2019-02-08T12:19:26.453Z,99101.58
2019-02-08T12:24:32.115Z,99087.32
2019-02-08T12:29:37.662Z,99086.98
2019-02-08T12:34:43.327Z,99088.45
2019-02-08T12:39:49.243Z,99082.91
2019-02-08T12:44:54.814Z,99076.61
2019-02-08T12:50:00.781Z,99067.41
2019-02-08T12:55:07.768Z,99078.52
2019-02-08T13:00:16.312Z,99073.34
2019-02-08T13:05:22.642Z,99068.45
2019-02-08T13:10:28.913Z,99067.82
2019-02-08T13:15:37.576Z,99059.79
2019-02-08T13:20:44.165Z,99054.40
2019-02-08T13:25:49.839Z,99047.72
2019-02-08T13:30:55.445Z,99049.62
2019-02-08T13:36:01.047Z,99044.85
2019-02-08T13:41:07.552Z,99044.51
2019-02-08T13:46:13.086Z,99040.01
2019-02-08T13:51:19.871Z,99042.73
2019-02-08T13:56:27.700Z,99032.08
2019-02-08T14:01:33.399Z,99021.48
2019-02-08T14:06:39.384Z,99025.09
2019-02-08T14:11:45.447Z,99030.48
2019-02-08T14:16:51.115Z,99020.95
2019-02-08T14:21:57.202Z,99017.41
2019-02-08T14:27:08.472Z,99019.01
2019-02-08T14:32:13.266Z,99014.00
2019-02-08T14:37:19.337Z,99013.29
2019-02-08T14:42:24.937Z,99010.92
2019-02-08T14:47:30.540Z,99007.30
2019-02-08T14:52:36.415Z,99009.95
2019-02-08T14:57:42.324Z,99001.52
2019-02-08T15:02:47.947Z,99001.08
2019-02-08T15:07:53.706Z,99004.75
2019-02-08T15:13:00.366Z,98998.88
2019-02-08T15:18:07.332Z,98998.02
2019-02-08T15:23:13.480Z,98985.55
2019-02-08T15:28:19.246Z,98984.80
2019-02-08T15:33:28.063Z,98978.41
2019-02-08T15:38:33.781Z,98971.95
2019-02-08T15:43:39.556Z,98979.13
2019-02-08T15:48:45.341Z,98986.09
2019-02-08T15:53:53.278Z,98982.17
2019-02-08T15:58:59.159Z,98977.22
2019-02-08T16:04:04.934Z,98982.61
2019-02-08T16:09:13.711Z,98977.05
2019-02-08T16:14:21.561Z,98972.99
2019-02-08T16:19:29.732Z,98972.36
2019-02-08T16:24:36.041Z,98972.70
2019-02-08T16:29:41.913Z,98963.73
2019-02-08T16:34:47.787Z,98955.94
2019-02-08T16:39:54.029Z,98957.69
2019-02-08T16:45:01.576Z,98954.00
2019-02-08T16:50:09.322Z,98959.56
2019-02-08T16:55:16.971Z,98956.80
2019-02-08T17:00:27.475Z,98955.51
2019-02-08T17:05:35.451Z,98969.12
2019-02-08T17:10:41.348Z,98972.58
2019-02-08T17:15:47.963Z,98975.69
2019-02-08T17:20:53.877Z,98970.48
2019-02-08T17:25:59.742Z,98966.58
2019-02-08T17:31:06.798Z,98965.20
2019-02-08T17:36:16.474Z,98962.36
2019-02-08T17:41:23.665Z,98948.78
2019-02-08T17:46:32.737Z,98948.78
2019-02-08T17:51:38.960Z,98948.99
2019-02-08T17:56:44.776Z,98928.09
2019-02-08T18:01:50.595Z,98928.09
2019-02-08T18:06:56.790Z,98934.53
2019-02-08T18:12:06.268Z,98926.17
2019-02-08T18:17:12.144Z,98917.20
2019-02-08T18:22:17.896Z,98915.06
2019-02-08T18:27:24.026Z,98915.13
2019-02-08T18:32:30.996Z,98914.58
2019-02-08T18:37:37.196Z,98911.91
2019-02-08T18:42:43.570Z,98903.34
2019-02-08T18:47:50.039Z,98899.35
2019-02-08T18:52:56.999Z,98906.39
2019-02-08T18:58:03.420Z,98906.39
2019-02-08T19:03:09.769Z,98891.27
2019-02-08T19:08:16.749Z,98886.52
2019-02-08T19:13:23.238Z,98877.47
2019-02-08T19:18:29.563Z,98865.71
2019-02-08T19:23:40.502Z,98862.92
2019-02-08T19:28:48.341Z,98861.59
2019-02-08T19:33:57.372Z,98842.69
2019-02-08T19:39:06.476Z,98842.30
2019-02-08T19:44:13.163Z,98833.56
2019-02-08T19:49:19.944Z,98825.30
2019-02-08T19:54:26.851Z,98824.34
2019-02-08T19:59:37.606Z,98818.45
2019-02-08T20:04:45.791Z,98811.68
2019-02-08T20:09:56.936Z,98799.36
2019-02-08T20:15:06.297Z,98788.69
2019-02-08T20:20:14.998Z,98790.23
2019-02-08T20:25:26.652Z,98781.86
2019-02-08T20:30:35.943Z,98774.47
2019-02-08T20:35:43.166Z,98767.72
2019-02-08T20:40:52.239Z,98753.55
2019-02-08T20:46:08.557Z,98744.15
2019-02-08T20:51:17.306Z,98732.25
2019-02-08T20:56:23.442Z,98727.44
2019-02-08T21:01:31.045Z,98718.41
2019-02-08T21:06:40.953Z,98710.82
2019-02-08T21:11:50.113Z,98709.73
2019-02-08T21:17:02.061Z,98690.17
2019-02-08T21:22:10.071Z,98680.81
2019-02-08T21:27:15.859Z,98680.14
2019-02-08T21:32:23.960Z,98655.42
2019-02-08T21:37:30.139Z,98643.75
2019-02-08T21:42:38.534Z,98633.77
2019-02-08T21:47:46.323Z,98621.11
2019-02-08T21:52:52.344Z,98614.81
2019-02-08T21:58:01.161Z,98607.77
2019-02-08T22:03:09.528Z,98593.48
2019-02-08T22:08:15.657Z,98577.84
2019-02-08T22:13:21.371Z,98592.25
2019-02-08T22:18:28.765Z,98591.13
2019-02-08T22:23:34.751Z,98574.38
2019-02-08T22:28:40.682Z,98551.78
2019-02-08T22:33:46.841Z,98551.78
2019-02-08T22:38:55.252Z,98533.81
2019-02-08T22:44:00.925Z,98533.81
2019-02-08T22:49:08.565Z,98527.29
2019-02-08T22:54:14.317Z,98527.29
2019-02-08T22:59:22.226Z,98531.48
2019-02-08T23:04:27.184Z,98531.48
2019-02-08T23:09:32.713Z,98516.06
2019-02-08T23:14:38.342Z,98497.73
2019-02-08T23:19:44.488Z,98495.51
2019-02-08T23:24:50.266Z,98491.13
2019-02-08T23:29:57.389Z,98489.19
2019-02-08T23:35:05.447Z,98474.51
2019-02-08T23:40:11.715Z,98464.80
2019-02-08T23:45:18.032Z,98452.67
2019-02-08T23:51:35.847Z,98447.21
2019-02-08T23:56:41.496Z,98450.85
